Westland, Michigan
Current Conditions -  °F | °C
As of 12:53 PM on Thursday 29 Jan 2015 (Local Time) from KDTW Reporting Station
Overcast Overcast  
Wind Chill: 31°   Ceiling: 2900
Heat Index: 35°   Visibility: 10mi
Dew Point: 27°   Wind: 5mph
Humidity: 72%   Direction: 260°W
Pressure: 29.72"   Gusts: NA
Location:  42.32°N, 83.4°W
Report Text: KDTW 291753Z 26004KT 10SM OVC029 02/M03 A2972 RMK AO2 SLP072 60001 T00171028 10017 21017 56017
Loading
Personal Weather Stations






























Interactive Weather Map New forecast layout! Learn more

10-Day Weather Forecast

Advertisements
Track Severe Weather on mobile